Time;durP1;ratioP1;P1;durP2;ratioP2;P2;SDS_P1;SDS_P2;PMS_P1;PMS_P2;Temp;Humidity;BMP_temperature;BMP_pressure;BME280_temperature;BME280_humidity;BME280_pressure;Samples;Min_cycle;Max_cycle;Signal;HPM_P1;HPM_P2
2022/11/07 00:02:10;;;;;;;7.17;6.27;;;9.30;99.90;;;-141.84;71.42;19334.22;5032875;28;20209;-65
2022/11/07 00:04:38;;;;;;;8.73;6.50;;;9.10;99.90;;;-141.84;71.12;19297.66;5033103;28;20213;-65
2022/11/07 00:07:08;;;;;;;7.93;6.77;;;9.20;99.90;;;-141.84;70.82;19334.22;5032086;28;20233;-65
2022/11/07 00:09:36;;;;;;;8.50;6.50;;;9.20;99.90;;;-141.84;70.57;19320.00;5032766;28;20233;-65
2022/11/07 00:12:05;;;;;;;7.87;6.10;;;9.30;99.90;;;-141.84;70.51;19346.44;5032206;28;20887;-64
2022/11/07 00:14:33;;;;;;;8.93;6.13;;;9.30;99.90;;;-141.84;69.79;19376.91;5032145;28;20775;-67
2022/11/07 00:17:01;;;;;;;6.90;6.20;;;9.40;99.90;;;-141.84;70.05;19354.56;5032360;28;20301;-64
2022/11/07 00:19:29;;;;;;;7.37;6.00;;;9.30;99.90;;;-141.84;69.98;19358.63;5032625;28;20194;-65
2022/11/07 00:21:57;;;;;;;7.60;5.97;;;9.40;99.90;;;-141.84;70.05;19368.78;5031819;28;20237;-65
2022/11/07 00:24:27;;;;;;;7.10;6.40;;;9.40;99.90;;;-141.84;70.63;19315.94;5031970;28;20226;-65
2022/11/07 00:26:55;;;;;;;7.17;5.97;;;9.30;99.90;;;-141.84;70.88;19342.34;5032047;28;20229;-63
2022/11/07 00:29:23;;;;;;;7.40;5.90;;;9.20;99.90;;;-141.84;70.60;19346.44;5032256;28;20230;-64
2022/11/07 00:31:51;;;;;;;8.33;6.40;;;9.20;99.90;;;-141.84;70.26;19326.09;5031809;28;20198;-65
2022/11/07 00:34:19;;;;;;;7.60;6.23;;;9.20;99.90;;;-141.84;71.00;19277.34;5032412;28;20674;-66
2022/11/07 00:36:47;;;;;;;7.03;6.20;;;9.10;99.90;;;-141.84;71.01;19301.72;5031767;28;20233;-64
2022/11/07 00:39:15;;;;;;;6.67;5.97;;;9.10;99.90;;;-141.84;71.42;19328.13;5031570;28;20230;-65
2022/11/07 00:41:47;;;;;;;8.47;6.30;;;9.10;99.90;;;-141.84;71.94;19269.22;5031637;28;20234;-65
2022/11/07 00:44:16;;;;;;;7.03;5.90;;;9.00;99.90;;;-141.84;72.57;19277.34;5031779;28;20229;-65
2022/11/07 00:46:44;;;;;;;6.80;5.80;;;8.90;99.90;;;-141.84;73.15;19232.63;5032318;28;20310;-64
2022/11/07 00:49:12;;;;;;;8.17;6.40;;;8.80;99.90;;;-141.84;73.13;19273.28;5031655;28;20230;-65
2022/11/07 00:51:40;;;;;;;8.83;6.37;;;8.70;99.90;;;-141.84;73.42;19273.28;5031533;28;20226;-65
2022/11/07 00:54:10;;;;;;;7.97;6.80;;;8.70;99.90;;;-141.84;73.11;19271.25;5031969;28;20237;-64
2022/11/07 00:56:38;;;;;;;7.67;6.80;;;8.70;99.90;;;-141.84;72.92;19273.28;5031681;28;20218;-65
2022/11/07 00:59:08;;;;;;;7.27;6.50;;;8.70;99.90;;;-141.84;73.43;19248.88;5031505;28;20669;-64
2022/11/07 01:01:36;;;;;;;7.30;6.50;;;8.60;99.90;;;-141.84;73.85;19228.56;5031843;28;20253;-65
2022/11/07 01:06:51;;;;;;;7.70;6.90;;;8.40;99.90;;;-141.84;74.39;19220.44;5031396;28;20229;-64
2022/11/07 01:09:21;;;;;;;7.30;6.60;;;8.40;99.90;;;-141.84;74.24;19220.44;5031125;28;20233;-64
2022/11/07 01:11:50;;;;;;;7.40;6.60;;;8.30;99.90;;;-141.84;74.74;19194.03;5031457;28;20608;-63
2022/11/07 01:14:22;;;;;;;7.80;7.00;;;8.30;99.90;;;-141.84;73.43;19248.88;5031121;28;20617;-63
2022/11/07 01:16:51;;;;;;;9.53;7.70;;;8.30;99.90;;;-141.84;73.59;19234.66;5031849;28;20205;-65
2022/11/07 01:19:20;;;;;;;10.20;7.10;;;8.30;99.90;;;-141.84;73.83;19232.63;5031472;28;20217;-64
2022/11/07 01:21:48;;;;;;;7.67;6.67;;;8.30;99.90;;;-141.84;74.10;19183.84;5031012;28;20226;-65
2022/11/07 01:24:18;;;;;;;7.57;6.77;;;8.20;99.90;;;-141.84;73.82;19208.25;5030898;28;20226;-64
2022/11/07 01:26:47;;;;;;;8.37;7.23;;;8.20;99.90;;;-141.84;74.19;19187.91;5031140;28;20237;-64
2022/11/07 01:29:17;;;;;;;7.73;6.83;;;8.20;99.90;;;-141.84;74.08;19202.16;5031489;28;20229;-66
2022/11/07 01:31:47;;;;;;;7.73;6.83;;;8.20;99.90;;;-141.84;73.02;19234.66;5031499;28;20201;-65
2022/11/07 01:34:16;;;;;;;8.00;7.20;;;8.30;99.90;;;-141.84;73.29;19232.63;5030754;28;20229;-66
2022/11/07 01:36:44;;;;;;;8.30;6.77;;;8.30;99.90;;;-141.84;71.65;19238.72;5030692;28;20233;-65
2022/11/07 01:39:12;;;;;;;8.27;7.40;;;8.40;99.90;;;-141.84;72.25;19218.41;5030675;28;20237;-63
2022/11/07 01:41:41;;;;;;;8.37;7.27;;;8.40;99.90;;;-141.84;72.98;19226.53;5030743;28;20239;-64
2022/11/07 01:44:49;;;;;;;8.00;7.13;;;8.30;99.90;;;-141.84;73.38;19187.91;5030419;28;20620;-65
2022/11/07 01:47:19;;;;;;;8.37;7.00;;;8.30;99.90;;;-141.84;72.38;19208.25;5030727;28;20229;-65
2022/11/07 01:49:48;;;;;;;7.30;6.53;;;8.30;99.90;;;-141.84;72.39;19208.25;5031363;28;20197;-65
2022/11/07 01:52:21;;;;;;;7.57;6.77;;;8.30;99.90;;;-141.84;72.41;19196.06;5030853;28;20264;-65
2022/11/07 01:55:01;;;;;;;7.63;6.83;;;8.20;99.90;;;-141.84;72.12;19216.38;5030336;28;20260;-65
2022/11/07 01:57:34;;;;;;;7.50;6.50;;;8.30;99.90;;;-141.84;72.62;19210.28;5030316;28;20748;-65
2022/11/07 02:00:08;;;;;;;8.70;6.93;;;8.20;99.90;;;-141.84;72.77;19206.22;5030765;28;20228;-64
2022/11/07 02:02:38;;;;;;;7.83;6.93;;;8.20;99.90;;;-141.84;72.74;19208.25;5030018;28;20229;-64
2022/11/07 02:05:09;;;;;;;9.07;6.90;;;8.20;99.90;;;-141.84;73.27;19185.88;5030686;28;20186;-64
2022/11/07 02:07:39;;;;;;;7.80;7.00;;;8.10;99.90;;;-141.84;72.02;19228.56;5030186;28;20248;-64
2022/11/07 02:10:08;;;;;;;7.43;6.63;;;8.10;99.90;;;-141.84;72.14;19196.06;5030394;28;20236;-66
2022/11/07 02:12:37;;;;;;;7.83;7.03;;;8.20;99.90;;;-141.84;72.58;19200.13;5030030;28;20225;-65
2022/11/07 02:15:10;;;;;;;6.77;6.10;;;8.20;99.90;;;-141.84;72.48;19151.34;5030322;28;20264;-64
2022/11/07 02:17:40;;;;;;;8.60;6.90;;;8.10;99.90;;;-141.84;72.92;19181.81;5030116;28;20279;-64
2022/11/07 02:20:10;;;;;;;7.77;6.93;;;8.10;99.90;;;-141.84;72.92;19159.47;5030616;28;20297;-66
2022/11/07 02:22:47;;;;;;;8.50;6.37;;;8.00;99.90;;;-141.84;73.36;19177.75;5029031;28;20230;-64
2022/11/07 02:25:19;;;;;;;7.10;6.40;;;8.00;99.90;;;-141.84;73.31;19198.09;5030038;28;20229;-64
2022/11/07 02:27:53;;;;;;;6.67;5.80;;;7.90;99.90;;;-141.84;73.20;19159.47;5029690;28;20803;-64
2022/11/07 02:30:24;;;;;;;7.77;6.70;;;7.90;99.90;;;-141.84;73.35;19210.28;5029971;28;20237;-65
2022/11/07 02:32:53;;;;;;;8.03;6.70;;;7.90;99.90;;;-141.84;72.37;19167.59;5030361;28;20225;-66
2022/11/07 02:35:38;;;;;;;6.70;5.90;;;7.90;99.90;;;-141.84;72.76;19222.47;5030286;28;20248;-65
2022/11/07 02:38:12;;;;;;;9.67;6.73;;;8.00;99.90;;;-141.84;72.77;19175.72;5029905;28;20201;-64
2022/11/07 02:40:44;;;;;;;7.00;6.30;;;7.90;99.90;;;-141.84;71.63;19220.44;5031048;28;20204;-65
2022/11/07 02:43:15;;;;;;;7.70;6.90;;;8.00;99.90;;;-141.84;72.33;19196.06;5029779;28;20222;-65
2022/11/07 02:45:48;;;;;;;7.13;6.43;;;8.00;99.90;;;-141.84;72.57;19196.06;5029922;28;20233;-65
2022/11/07 02:48:16;;;;;;;9.67;7.50;;;8.00;99.90;;;-141.84;72.55;19173.69;5030331;28;20229;-65
2022/11/07 02:50:45;;;;;;;8.33;7.43;;;8.00;99.90;;;-141.84;72.43;19210.28;5030193;28;20696;-64
2022/11/07 02:53:13;;;;;;;7.70;6.83;;;8.00;99.90;;;-141.84;70.92;19218.41;5029915;28;20234;-65
2022/11/07 02:55:42;;;;;;;7.60;6.60;;;8.20;99.90;;;-141.84;71.01;19238.72;5030517;28;20256;-65
2022/11/07 02:58:10;;;;;;;8.60;7.57;;;8.20;99.90;;;-141.84;70.56;19208.25;5029728;28;20233;-65
2022/11/07 03:00:38;;;;;;;8.53;7.03;;;8.30;99.90;;;-141.84;70.05;19228.56;5029933;28;20230;-65
2022/11/07 03:03:07;;;;;;;8.93;6.90;;;8.40;99.90;;;-141.84;69.92;19267.16;5030045;28;20705;-66
2022/11/07 03:05:35;;;;;;;7.73;6.83;;;8.40;99.90;;;-141.84;69.52;19281.41;5030104;28;20237;-65
2022/11/07 03:08:03;;;;;;;7.30;6.60;;;8.50;99.90;;;-141.84;69.46;19250.91;5029999;28;21042;-65
2022/11/07 03:10:31;;;;;;;8.70;7.40;;;8.50;99.90;;;-141.84;69.69;19269.22;5030453;28;20202;-65
2022/11/07 03:13:00;;;;;;;8.43;7.13;;;8.50;99.90;;;-141.84;68.73;19289.53;5031909;28;20654;-65
2022/11/07 03:15:28;;;;;;;6.63;6.00;;;8.60;99.90;;;-141.84;68.92;19285.47;5033353;28;20225;-65
2022/11/07 03:17:59;;;;;;;7.57;6.27;;;8.60;99.90;;;-141.84;68.60;19269.22;5033512;28;20288;-64
2022/11/07 03:20:27;;;;;;;7.00;6.23;;;8.60;99.90;;;-141.84;68.68;19273.28;5033261;28;20240;-65
2022/11/07 03:22:55;;;;;;;8.27;6.80;;;8.70;99.90;;;-141.84;68.35;19285.47;5033104;28;20229;-65
2022/11/07 03:25:23;;;;;;;6.87;6.07;;;8.70;99.90;;;-141.84;68.31;19328.13;5033926;28;20206;-65
2022/11/07 03:27:51;;;;;;;6.90;6.20;;;8.80;99.90;;;-141.84;67.51;19334.22;5032670;28;20724;-65
2022/11/07 03:30:21;;;;;;;7.57;5.83;;;8.90;99.90;;;-141.84;68.00;19313.91;5033120;28;20249;-64
2022/11/07 03:32:52;;;;;;;6.60;5.93;;;8.90;99.90;;;-141.84;67.87;19342.34;5033344;28;20226;-64
2022/11/07 03:35:20;;;;;;;7.07;6.37;;;8.90;99.90;;;-141.84;68.52;19295.63;5033198;28;20296;-66
2022/11/07 03:37:49;;;;;;;6.80;5.57;;;8.90;99.90;;;-141.84;68.52;19309.84;5033756;28;20256;-67
2022/11/07 03:40:17;;;;;;;7.70;6.90;;;8.90;99.90;;;-141.84;67.90;19342.34;5033265;28;20244;-65
2022/11/07 03:42:46;;;;;;;7.47;5.93;;;9.00;99.90;;;-141.84;67.98;19350.50;5032690;28;20241;-65
2022/11/07 03:45:16;;;;;;;7.20;5.53;;;9.00;99.90;;;-141.84;67.82;19334.22;5032655;28;20238;-65
2022/11/07 03:47:47;;;;;;;6.10;5.50;;;9.10;99.90;;;-141.84;68.41;19330.16;5033130;28;20225;-65
2022/11/07 03:50:18;;;;;;;6.30;5.70;;;9.00;99.90;;;-141.84;68.80;19334.22;5032706;28;20283;-65
2022/11/07 03:52:48;;;;;;;5.93;5.33;;;9.00;99.90;;;-141.84;68.15;19340.31;5033471;28;20229;-66
2022/11/07 03:55:17;;;;;;;5.83;5.13;;;9.10;99.90;;;-141.84;68.17;19362.69;5032509;28;20241;-65
2022/11/07 03:57:46;;;;;;;6.63;5.07;;;9.10;99.90;;;-141.84;67.73;19366.75;5032461;28;20312;-64
2022/11/07 04:00:16;;;;;;;6.23;5.30;;;9.20;99.90;;;-141.84;68.20;19340.31;5032658;28;20229;-64
2022/11/07 04:02:45;;;;;;;5.73;5.00;;;9.20;99.90;;;-141.84;68.47;19352.53;5032670;28;20329;-65
2022/11/07 04:05:14;;;;;;;5.10;4.60;;;9.20;99.90;;;-141.84;68.61;19364.72;5032704;28;20304;-65
2022/11/07 04:07:42;;;;;;;7.27;5.20;;;9.30;99.90;;;-141.84;68.96;19336.25;5033314;28;20210;-64
2022/11/07 04:10:10;;;;;;;4.53;4.13;;;9.20;99.90;;;-141.84;69.15;19340.31;5032151;28;20225;-64
2022/11/07 04:18:11;;;;;;;5.00;4.50;;;9.30;99.90;;;-141.84;69.15;19374.88;5032657;28;20226;-65
2022/11/07 04:20:39;;;;;;;4.30;3.90;;;9.20;99.90;;;-141.84;69.80;19317.97;5032108;28;20221;-65
2022/11/07 04:23:07;;;;;;;4.97;4.53;;;9.20;99.90;;;-141.84;70.50;19334.22;5031976;28;20225;-64
2022/11/07 04:28:21;;;;;;;4.50;4.10;;;9.00;99.90;;;-141.84;71.32;19291.56;5032283;28;20209;-67
2022/11/07 04:30:49;;;;;;;4.60;4.20;;;8.90;99.90;;;-141.84;71.03;19279.38;5032165;28;20721;-64
2022/11/07 04:33:18;;;;;;;4.37;3.97;;;8.90;99.90;;;-141.84;71.20;19305.78;5032161;28;20225;-65
2022/11/07 04:35:46;;;;;;;4.63;4.17;;;9.00;99.90;;;-141.84;71.41;19303.75;5031931;28;20233;-64
2022/11/07 04:38:14;;;;;;;4.73;4.23;;;8.90;99.90;;;-141.84;72.07;19267.16;5032056;28;20238;-64
2022/11/07 04:40:42;;;;;;;4.57;4.00;;;8.80;99.90;;;-141.84;72.51;19273.28;5032202;28;20206;-64
2022/11/07 04:43:10;;;;;;;4.80;4.37;;;8.80;99.90;;;-141.84;72.13;19279.38;5031860;28;20648;-66
2022/11/07 04:45:39;;;;;;;6.00;3.97;;;8.80;99.90;;;-141.84;72.22;19267.16;5031407;28;20238;-64
2022/11/07 04:48:09;;;;;;;4.27;3.80;;;8.80;99.90;;;-141.84;72.36;19279.38;5031969;28;20248;-64
2022/11/07 04:50:39;;;;;;;5.00;4.37;;;8.80;99.90;;;-141.84;71.69;19285.47;5031645;28;20228;-63
2022/11/07 04:53:07;;;;;;;6.57;3.83;;;8.90;99.90;;;-141.84;72.18;19269.22;5031717;28;20206;-65
2022/11/07 04:55:35;;;;;;;4.03;3.63;;;8.90;99.90;;;-141.84;72.22;19295.63;5032113;28;20198;-64
2022/11/07 04:58:03;;;;;;;4.63;3.73;;;8.90;99.90;;;-141.84;72.22;19283.44;5031429;28;20241;-64
2022/11/07 05:00:31;;;;;;;4.27;3.87;;;8.80;99.90;;;-141.84;72.13;19242.78;5031344;28;20229;-66
2022/11/07 05:02:59;;;;;;;4.13;3.73;;;8.90;99.90;;;-141.84;72.69;19267.16;5031280;28;20709;-64
2022/11/07 05:05:28;;;;;;;4.90;3.87;;;8.80;99.90;;;-141.84;72.43;19246.84;5031558;28;20263;-64
2022/11/07 05:07:57;;;;;;;5.77;3.33;;;8.80;99.90;;;-141.84;72.93;19267.16;5031341;28;20210;-64
2022/11/07 05:10:29;;;;;;;4.13;3.73;;;8.70;99.90;;;-141.84;72.73;19265.13;5031674;28;20209;-65
2022/11/07 05:12:57;;;;;;;4.33;3.90;;;8.70;99.90;;;-141.84;73.22;19257.00;5030140;28;20229;-64
2022/11/07 05:15:25;;;;;;;4.37;3.97;;;8.70;99.90;;;-141.84;73.21;19267.16;5031215;28;20233;-64
2022/11/07 05:17:53;;;;;;;5.00;4.50;;;8.70;99.90;;;-141.84;73.71;19240.75;5031030;28;20228;-65
2022/11/07 05:20:31;;;;;;;5.60;4.90;;;8.60;99.90;;;-141.84;73.57;19257.00;5030700;28;20601;-66
2022/11/07 05:23:17;;;;;;;5.10;4.10;;;8.60;99.90;;;-141.84;74.06;19224.50;5031151;28;20257;-65
2022/11/07 05:25:49;;;;;;;4.43;4.03;;;8.50;99.90;;;-141.84;74.19;19206.22;5031308;28;20205;-64
2022/11/07 05:28:21;;;;;;;4.43;3.87;;;8.50;99.90;;;-141.84;74.11;19210.28;5031238;28;20213;-65
2022/11/07 05:31:00;;;;;;;4.97;3.90;;;8.60;99.90;;;-141.84;74.66;19196.06;5030721;28;20227;-64
2022/11/07 05:33:29;;;;;;;4.00;3.60;;;8.80;99.90;;;-141.84;74.96;19202.16;5030878;28;20644;-66
2022/11/07 05:35:57;;;;;;;4.83;4.00;;;8.50;99.90;;;-141.84;75.02;19181.81;5030018;28;20234;-64
2022/11/07 05:38:26;;;;;;;4.40;3.70;;;8.40;99.90;;;-141.84;75.23;19173.69;5030561;28;20590;-66
2022/11/07 05:40:54;;;;;;;4.20;3.80;;;8.40;99.90;;;-141.84;75.58;19204.19;5030863;28;20205;-64
2022/11/07 05:43:23;;;;;;;4.90;4.10;;;8.30;99.90;;;-141.84;75.68;19208.25;5031456;28;20222;-65
2022/11/07 05:45:51;;;;;;;4.80;4.00;;;8.30;99.90;;;-141.84;75.98;19157.44;5030760;28;20238;-65
2022/11/07 05:48:19;;;;;;;4.23;3.57;;;8.20;99.90;;;-141.84;75.62;19183.84;5031221;28;20276;-67
2022/11/07 05:50:47;;;;;;;4.70;3.83;;;8.30;99.90;;;-141.84;75.79;19181.81;5030702;28;20260;-65
2022/11/07 05:53:15;;;;;;;5.33;4.07;;;8.30;99.90;;;-141.84;75.84;19177.75;5030191;28;20230;-65
2022/11/07 05:55:45;;;;;;;5.17;4.43;;;8.30;99.90;;;-141.84;75.10;19175.72;5031099;28;20202;-65
2022/11/07 05:58:14;;;;;;;4.20;3.80;;;8.30;99.90;;;-141.84;75.03;19179.78;5030152;28;20421;-64
2022/11/07 06:00:42;;;;;;;5.30;4.07;;;8.30;99.90;;;-141.84;75.93;19210.28;5030577;28;20639;-64
2022/11/07 06:03:10;;;;;;;5.43;4.20;;;8.30;99.90;;;-141.84;76.13;19161.50;5030214;28;20234;-64
2022/11/07 06:05:41;;;;;;;4.73;3.70;;;8.20;99.90;;;-141.84;76.43;19163.53;5030535;28;20653;-65
2022/11/07 06:08:12;;;;;;;5.93;4.30;;;8.20;99.90;;;-141.84;77.07;19165.56;5030741;28;20288;-65
2022/11/07 06:10:42;;;;;;;5.80;3.70;;;8.10;99.90;;;-141.84;77.71;19112.75;5030796;28;20186;-66
2022/11/07 06:13:15;;;;;;;4.20;3.63;;;7.90;99.90;;;-141.84;77.82;19114.78;5030080;28;20226;-65
2022/11/07 06:15:45;;;;;;;4.53;3.87;;;7.90;99.90;;;-141.84;78.30;19088.34;5030037;28;20213;-64
2022/11/07 06:18:16;;;;;;;5.13;4.17;;;7.80;99.90;;;-141.84;78.48;19122.91;5030186;28;20228;-64
2022/11/07 06:20:45;;;;;;;4.50;3.67;;;7.80;99.90;;;-141.84;78.40;19137.13;5030068;28;20256;-64
2022/11/07 06:23:13;;;;;;;4.10;3.70;;;7.80;99.90;;;-141.84;78.15;19112.75;5030098;28;20240;-64
2022/11/07 06:25:42;;;;;;;4.10;3.60;;;7.90;99.90;;;-141.84;78.18;19131.03;5030756;28;20209;-66
2022/11/07 06:28:13;;;;;;;4.20;3.80;;;8.10;99.90;;;-141.84;77.48;19155.41;5015477;28;20218;-64
2022/11/07 06:30:41;;;;;;;4.07;3.67;;;8.00;99.90;;;-141.84;77.83;19108.69;5010773;28;20234;-65
2022/11/07 06:33:13;;;;;;;5.27;3.80;;;8.00;99.90;;;-141.84;77.71;19173.69;5010471;28;20233;-65
2022/11/07 06:35:43;;;;;;;3.43;3.03;;;8.20;99.90;;;-141.84;77.22;19149.31;5010379;28;20309;-66
2022/11/07 06:38:13;;;;;;;5.10;3.63;;;8.30;99.90;;;-141.84;76.65;19185.88;5020575;28;20202;-66
2022/11/07 06:40:42;;;;;;;4.73;3.33;;;8.40;99.90;;;-141.84;74.73;19222.47;5030388;28;20206;-66
2022/11/07 06:43:14;;;;;;;3.80;3.43;;;8.60;99.90;;;-141.84;74.63;19222.47;5029715;28;20240;-66
2022/11/07 06:45:45;;;;;;;4.10;3.13;;;8.80;99.90;;;-141.84;74.27;19238.72;5029930;28;20284;-67
2022/11/07 06:48:13;;;;;;;3.80;3.33;;;8.90;99.90;;;-141.84;73.59;19210.28;5032521;28;20283;-66
2022/11/07 06:50:41;;;;;;;3.57;2.90;;;9.10;99.90;;;-141.84;73.11;19261.06;5033967;28;20237;-66
2022/11/07 06:53:12;;;;;;;3.50;3.20;;;9.10;99.90;;;-141.84;73.09;19257.00;5034125;28;20208;-66
2022/11/07 06:55:41;;;;;;;4.27;3.40;;;9.20;99.90;;;-141.84;72.77;19216.38;5034418;28;20218;-65
2022/11/07 06:58:09;;;;;;;4.67;3.00;;;9.30;99.90;;;-141.84;72.29;19301.72;5033619;28;20237;-66
2022/11/07 07:00:39;;;;;;;3.53;2.87;;;9.30;99.90;;;-141.84;72.63;19250.91;5033686;28;20249;-65
2022/11/07 07:03:07;;;;;;;5.77;3.10;;;9.30;99.90;;;-141.84;72.59;19275.31;5033565;28;20225;-67
2022/11/07 07:05:35;;;;;;;3.60;2.93;;;9.30;99.90;;;-141.84;72.36;19279.38;5033877;28;20313;-65
2022/11/07 07:08:06;;;;;;;3.60;2.77;;;9.40;99.90;;;-141.84;72.81;19285.47;5033564;28;20210;-67
2022/11/07 07:10:39;;;;;;;3.30;3.00;;;9.30;99.90;;;-141.84;72.87;19271.25;5033902;28;20187;-66
2022/11/07 07:13:07;;;;;;;3.43;2.80;;;9.40;99.90;;;-141.84;73.41;19254.97;5033269;28;20284;-66
2022/11/07 07:15:35;;;;;;;4.40;3.00;;;9.30;99.90;;;-141.84;73.50;19228.56;5033613;28;20234;-67
2022/11/07 07:18:20;;;;;;;3.37;2.80;;;9.30;99.90;;;-141.84;72.47;19277.34;5033220;28;20230;-66
2022/11/07 07:20:48;;;;;;;2.90;2.57;;;9.40;99.90;;;-141.84;72.61;19287.50;5033066;28;20236;-65
2022/11/07 07:23:17;;;;;;;3.13;2.83;;;9.50;99.90;;;-141.84;72.65;19281.41;5033451;28;20230;-66
2022/11/07 07:25:46;;;;;;;2.73;2.53;;;9.50;99.90;;;-141.84;72.49;19269.22;5033510;28;20230;-66
2022/11/07 07:28:14;;;;;;;5.57;2.73;;;9.60;99.90;;;-141.84;71.29;19336.25;5032816;28;20225;-65
2022/11/07 07:30:42;;;;;;;6.77;2.90;;;9.70;99.90;;;-141.84;71.45;19320.00;5033117;28;20229;-65
2022/11/07 07:33:19;;;;;;;6.13;2.80;;;9.80;99.90;;;-141.84;71.69;19305.78;5033128;28;20309;-65
2022/11/07 07:35:47;;;;;;;3.60;3.10;;;9.90;99.90;;;-141.84;70.76;19317.97;5033225;28;20225;-64
2022/11/07 07:38:15;;;;;;;2.80;2.50;;;9.90;99.90;;;-141.84;70.75;19334.22;5021933;28;20258;-65
2022/11/07 07:40:43;;;;;;;3.07;2.70;;;10.00;99.90;;;-141.84;70.91;19320.00;5013727;28;20198;-65
2022/11/07 07:43:11;;;;;;;3.50;2.80;;;9.90;99.90;;;-141.84;71.58;19330.16;5013027;28;20226;-65
2022/11/07 07:45:40;;;;;;;4.47;2.90;;;9.90;99.90;;;-141.84;71.51;19344.41;5012875;28;20239;-64
2022/11/07 07:48:08;;;;;;;2.90;2.60;;;9.90;99.90;;;-141.84;71.50;19336.25;5013204;28;20227;-65
2022/11/07 07:50:37;;;;;;;3.63;2.90;;;9.90;99.90;;;-141.84;71.57;19366.75;5012759;28;20222;-64
2022/11/07 07:53:05;;;;;;;3.90;2.50;;;10.00;99.90;;;-141.84;71.23;19332.19;5012842;28;20206;-65
2022/11/07 07:55:36;;;;;;;3.60;2.50;;;10.00;99.90;;;-141.84;71.80;19326.09;5011748;28;20187;-65
2022/11/07 07:58:04;;;;;;;3.00;2.30;;;10.00;99.90;;;-141.84;71.78;19342.34;5010981;28;20237;-65
2022/11/07 08:00:32;;;;;;;2.83;2.27;;;10.10;99.90;;;-141.84;70.84;19326.09;5011639;28;20787;-65
2022/11/07 08:03:01;;;;;;;2.43;2.20;;;10.20;99.90;;;-141.84;71.62;19338.28;5012670;28;20603;-67
2022/11/07 08:05:29;;;;;;;2.37;2.17;;;10.10;99.90;;;-141.84;71.71;19311.88;5011650;28;20768;-65
2022/11/07 08:07:59;;;;;;;3.30;2.40;;;10.10;99.90;;;-141.84;71.78;19336.25;5014856;28;20710;-65
2022/11/07 08:10:27;;;;;;;2.40;2.20;;;10.20;99.90;;;-141.84;72.18;19360.66;5032982;28;20198;-66
2022/11/07 08:13:09;;;;;;;2.33;2.13;;;10.20;99.90;;;-141.84;70.97;19340.31;5031819;28;20649;-65
2022/11/07 08:15:38;;;;;;;3.67;2.20;;;10.30;99.90;;;-141.84;70.59;19431.78;5032247;28;20494;-66
2022/11/07 08:18:06;;;;;;;2.23;2.03;;;10.40;99.90;;;-141.84;70.01;19415.50;5032430;28;20599;-65
2022/11/07 08:20:34;;;;;;;2.93;2.13;;;10.50;99.90;;;-141.84;69.88;19433.81;5032314;28;20476;-65
2022/11/07 08:23:07;;;;;;;2.70;2.10;;;10.60;99.90;;;-141.84;70.04;19407.38;5032449;28;20198;-64
2022/11/07 08:25:43;;;;;;;2.90;2.20;;;10.60;99.90;;;-141.84;69.83;19425.69;5032720;28;20205;-64
2022/11/07 08:28:11;;;;;;;2.40;2.20;;;10.60;99.90;;;-141.84;69.94;19403.31;5032075;28;20226;-65
2022/11/07 08:30:39;;;;;;;2.10;2.00;;;10.70;99.90;;;-141.84;69.70;19421.63;5032352;28;20225;-64
2022/11/07 08:33:08;;;;;;;3.90;3.03;;;10.80;99.90;;;-141.84;68.66;19484.59;5032390;28;20225;-64
2022/11/07 08:35:36;;;;;;;4.03;2.20;;;11.00;99.90;;;-141.84;68.10;19496.81;5032184;28;20646;-65
2022/11/07 08:38:11;;;;;;;2.77;2.37;;;11.10;99.90;;;-141.84;68.17;19452.09;5022500;28;20253;-65
2022/11/07 08:40:39;;;;;;;2.53;2.30;;;11.20;99.90;;;-141.84;67.98;19500.88;5012695;28;20519;-65
2022/11/07 08:43:07;;;;;;;2.80;2.50;;;11.20;99.90;;;-141.84;67.63;19500.88;5012338;28;20238;-65
2022/11/07 08:45:35;;;;;;;3.43;2.67;;;11.30;99.90;;;-141.84;67.30;19502.91;5012142;28;20645;-65
2022/11/07 08:48:04;;;;;;;3.33;2.37;;;11.40;99.90;;;-141.84;66.77;19523.22;5012375;28;20223;-63
2022/11/07 08:50:32;;;;;;;2.77;2.20;;;11.50;99.90;;;-141.84;66.36;19541.50;5012059;28;20234;-65
2022/11/07 08:53:00;;;;;;;3.40;2.40;;;11.60;99.90;;;-141.84;67.19;19551.69;5012204;28;20210;-64
2022/11/07 08:55:32;;;;;;;2.73;2.10;;;11.60;99.90;;;-141.84;67.61;19533.38;5012432;28;20191;-65
2022/11/07 08:58:01;;;;;;;4.53;2.40;;;11.50;99.90;;;-141.84;68.06;19452.09;5012013;28;20230;-64
2022/11/07 09:00:30;;;;;;;2.57;2.10;;;11.50;99.90;;;-141.84;68.10;19511.03;5011773;28;20226;-65
2022/11/07 09:03:02;;;;;;;2.50;2.30;;;11.40;99.90;;;-141.84;68.24;19525.25;5011865;28;20231;-65
2022/11/07 09:05:50;;;;;;;8.13;2.50;;;11.40;99.90;;;-141.84;68.85;19504.94;5026535;28;20265;-65
2022/11/07 09:08:18;;;;;;;5.33;2.37;;;11.40;99.90;;;-141.84;68.84;19496.81;5031628;28;20229;-64
2022/11/07 09:10:48;;;;;;;3.33;2.20;;;11.40;99.90;;;-141.84;68.14;19517.13;5032033;28;20213;-64
2022/11/07 09:13:16;;;;;;;6.93;2.70;;;11.50;99.90;;;-141.84;68.04;19588.25;5031181;28;20233;-66
2022/11/07 09:15:44;;;;;;;6.10;2.43;;;11.70;99.90;;;-141.84;66.79;19565.91;5031292;28;20222;-66
2022/11/07 09:18:19;;;;;;;3.20;1.87;;;11.80;99.90;;;-141.84;66.23;19594.34;5031533;28;20643;-64
2022/11/07 09:20:47;;;;;;;5.03;2.37;;;11.90;99.90;;;-141.84;65.94;19598.41;5031013;28;20222;-66
2022/11/07 09:23:15;;;;;;;5.13;2.53;;;12.20;99.90;;;-141.84;64.84;19659.38;5031304;28;20229;-66
2022/11/07 09:25:44;;;;;;;3.33;2.17;;;12.40;99.90;;;-141.84;64.52;19657.34;5031532;28;20236;-64
2022/11/07 09:28:14;;;;;;;2.00;1.90;;;12.50;99.90;;;-141.84;64.00;19683.78;5031003;28;20735;-65
2022/11/07 09:30:43;;;;;;;3.10;2.10;;;12.50;99.90;;;-141.84;64.19;19671.56;5030881;28;20649;-64
2022/11/07 09:33:11;;;;;;;2.57;2.23;;;12.50;99.90;;;-141.84;63.71;19695.97;5031130;28;20230;-65
2022/11/07 09:35:39;;;;;;;4.90;2.10;;;12.60;99.90;;;-141.84;63.29;19724.41;5031161;28;20309;-67
2022/11/07 09:38:07;;;;;;;1.70;1.60;;;12.70;99.90;;;-141.84;63.31;19712.22;5021059;28;20206;-66
2022/11/07 09:40:48;;;;;;;3.60;2.08;;;12.80;99.90;;;-141.84;63.99;19722.38;5011277;28;20203;-64
2022/11/07 09:43:58;;;;;;;2.97;1.90;;;12.70;99.90;;;-141.84;63.42;19724.41;5011558;28;20691;-64
2022/11/07 09:46:42;;;;;;;3.97;2.10;;;12.80;99.90;;;-141.84;63.75;19744.75;5011039;28;20661;-65
2022/11/07 09:49:20;;;;;;;3.28;1.80;;;12.80;99.90;;;-141.84;62.66;19756.94;5011167;28;20245;-63
2022/11/07 09:51:56;;;;;;;3.28;2.03;;;12.90;99.90;;;-141.84;62.56;19791.47;5011244;28;20607;-66
2022/11/07 09:54:29;;;;;;;3.20;1.83;;;13.00;99.90;;;-141.84;63.22;19758.97;5011207;28;20261;-66
2022/11/07 09:56:59;;;;;;;3.23;2.03;;;12.90;99.90;;;-141.84;63.82;19700.03;5010912;28;20233;-65
2022/11/07 09:59:38;;;;;;;4.82;2.00;;;12.90;99.90;;;-141.84;63.16;19744.75;5010959;28;20229;-64
2022/11/07 10:02:17;;;;;;;3.55;1.88;;;12.90;99.90;;;-141.84;62.02;19748.81;5026367;28;20210;-66
2022/11/07 10:04:50;;;;;;;2.38;1.80;;;13.00;99.90;;;-141.84;62.34;19777.25;5030875;28;20752;-64
2022/11/07 10:07:36;;;;;;;2.55;1.85;;;13.10;99.90;;;-141.84;61.90;19775.22;5030952;28;20736;-63
2022/11/07 10:10:17;;;;;;;2.47;1.60;;;13.10;99.90;;;-141.84;61.51;19797.59;5030469;28;20221;-64
2022/11/07 10:13:19;;;;;;;3.55;1.70;;;13.20;99.90;;;-141.84;61.10;19830.09;5030456;28;20229;-65
2022/11/07 10:16:04;;;;;;;2.20;1.60;;;13.30;99.90;;;-141.84;60.84;19824.00;5018003;28;20225;-65
2022/11/07 10:18:50;;;;;;;2.25;1.60;;;13.40;99.90;;;-141.84;61.90;19779.28;5030556;28;20317;-64
2022/11/07 10:21:28;;;;;;;3.20;1.63;;;13.20;99.90;;;-141.84;61.90;19817.91;5030285;28;20229;-65
2022/11/07 10:24:27;;;;;;;2.78;1.60;;;13.10;99.90;;;-141.84;61.85;19797.59;5034650;28;20228;-65
2022/11/07 10:26:57;;;;;;;2.38;1.73;;;13.10;99.90;;;-141.84;61.88;19758.97;5034524;28;20634;-64
2022/11/07 10:29:37;;;;;;;2.05;1.80;;;13.10;99.90;;;-141.84;61.92;19777.25;5034509;28;20475;-64
2022/11/07 10:32:22;;;;;;;4.50;2.00;;;13.10;99.90;;;-141.84;61.45;19817.91;5034634;28;20312;-64
2022/11/07 10:35:14;;;;;;;3.58;1.92;;;13.10;99.90;;;-141.84;61.57;19850.41;5034543;28;20190;-65
2022/11/07 10:37:42;;;;;;;2.47;1.63;;;13.30;99.90;;;-141.84;59.59;19925.63;5029839;28;20271;-65